Aniara — SKJC — position and weather

sailwx.info

Track history (hours):
 
Tides and Currents Weather Stations Pressure Air Temp Water Temp Dewpoint Dewpoint Depression Visibility Wind Speed Wind Dir Waves Ship Positions

Aniara

Last reported at 2015-Mar-21 16:31 UTC. Time now 2015-Mar-28 05:20 UTC.
Position S 31°52' E 037°44'.

Length 232 m; draft 9.3 m.

Type: Cargo ship. MMSI: 266282000.

Date/timePositionNaut miles runAvg speedWind from/ knotsBaromVisibWave heightAir tempDewpointWater temp
2015-Mar-21 16:31S 31°52' E 037°44'31815.9
2015-Mar-20 20:33S 30°06' E 031°55'2015.2
2015-Mar-20 19:14S 29°59' E 031°33'1015.3
2015-Mar-20 18:33S 29°56' E 031°22'1615.9
2015-Mar-20 17:33S 29°51' E 031°04'2 1.9
2015-Mar-20 16:28S 29°52' E 031°02'0 0.0
2015-Mar-20 15:16S 29°52' E 031°02'0 0.0
2015-Mar-20 14:28S 29°52' E 031°02'0 0.0
2015-Mar-20 13:28S 29°52' E 031°02'0 0.0
2015-Mar-20 12:28S 29°52' E 031°02'0 0.0
2015-Mar-20 11:28S 29°52' E 031°02'0 0.0
2015-Mar-20 10:28S 29°52' E 031°02'0 0.0
2015-Mar-20 09:22S 29°52' E 031°02'1 1.5
2015-Mar-20 08:33S 29°52' E 031°04'3 3.5
2015-Mar-20 07:33S 29°50' E 031°07'1616.3
2015-Mar-20 06:33S 30°05' E 030°60'365 9.7
2015-Mar-18 17:05S 34°07' E 025°37'1113.6
2015-Mar-18 16:18S 34°10' E 025°25'1413.6
2015-Mar-18 15:18S 34°13' E 025°09'  
Track history (hours):
 
Tides and Currents Weather Stations Pressure Air Temp Water Temp Dewpoint Dewpoint Depression Visibility Wind Speed Wind Dir Waves Ship Positions

Aniara

Last reported at 2015-Mar-21 16:31 UTC. Time now 2015-Mar-28 05:20 UTC.
Position S 31°52' E 037°44'.

Length 232 m; draft 9.3 m.

Type: Cargo ship. MMSI: 266282000.

Date/timePositionNaut miles runAvg speedWind from/ knotsBaromVisibWave heightAir tempDewpointWater temp
2015-Mar-21 16:31S 31°52' E 037°44'31815.9
2015-Mar-20 20:33S 30°06' E 031°55'2015.2
2015-Mar-20 19:14S 29°59' E 031°33'1015.3
2015-Mar-20 18:33S 29°56' E 031°22'1615.9
2015-Mar-20 17:33S 29°51' E 031°04'2 1.9
2015-Mar-20 16:28S 29°52' E 031°02'0 0.0
2015-Mar-20 15:16S 29°52' E 031°02'0 0.0
2015-Mar-20 14:28S 29°52' E 031°02'0 0.0
2015-Mar-20 13:28S 29°52' E 031°02'0 0.0
2015-Mar-20 12:28S 29°52' E 031°02'0 0.0
2015-Mar-20 11:28S 29°52' E 031°02'0 0.0
2015-Mar-20 10:28S 29°52' E 031°02'0 0.0
2015-Mar-20 09:22S 29°52' E 031°02'1 1.5
2015-Mar-20 08:33S 29°52' E 031°04'3 3.5
2015-Mar-20 07:33S 29°50' E 031°07'1616.3
2015-Mar-20 06:33S 30°05' E 030°60'365 9.7
2015-Mar-18 17:05S 34°07' E 025°37'1113.6
2015-Mar-18 16:18S 34°10' E 025°25'1413.6
2015-Mar-18 15:18S 34°13' E 025°09'  

Dump ship's entire track history